Historyczne dane pomiarowe

Dodano dane terminowe – wersja testowa.

Dane z okresu 1951-2019

Wersja bazy: 1.34 [2019-03-16, lista zmian], aktualizacja planowana na 2019-04-15

Dane meteo z obszaru Polski uzyskane na podstawie danych udostępnionych przez Instytut Meteorologii i Gospodarki Wodnej – Państwowy Instytut Badawczy.

 

Wybierz Datę:    

       

TemperaturaWilgotnośćWiatrCiśnienieOpadyŚniegCzas trwania zjawisk
 Stacja t tx tn tng RH VA  wxwx mslp ppp RRR   cm mm wxwxwxwxwxwxwx
1999-08-14 15.7 20.5 10.3 9.2 76.0- 4.0 2.3---- 0.0------------
1999-08-13 15.1 19.3 11.1 10.8 82.8- 6.0 2.0---- 0.0------------
1999-08-12 15.5 19.4 13.0 11.7 94.8- 6.0 2.3---- 0.0------------
1999-08-11 19.9 23.8 16.8 15.0 85.0- 5.0 1.7---- 35.7------------
1999-08-10 20.8 29.0 15.9 14.7 86.5- 7.7 1.0---- 15.1------------
1999-08-09 22.7 29.5 18.4 14.7 85.0- 2.7 1.3---- 4.5------------
1999-08-08 21.9 27.4 17.7 15.9 89.0- 4.0 0.7---- 0.0------------
1999-08-07 21.5 27.7 15.0 12.7 86.3- 2.3 0.3---- 0.0------------
1999-08-06 20.1 25.9 15.7 14.1 87.3- 5.7 1.3---- 0.0------------
1999-08-05 18.4 24.9 11.8 9.3 71.8- 0.0 0.3---- 13.7------------
1999-08-04 17.4 23.0 11.2 9.2 79.5- 1.7 0.3---- 0.0------------
1999-08-03 16.5 21.6 11.1 11.1 91.0- 7.3 0.7---- 0.0------------
1999-08-02 16.4 19.9 12.4 10.7 90.0- 7.7 1.0---- 0.0------------
1999-08-01 17.5 21.9 13.7 11.7 85.3- 6.3 1.0---- 0.0------------
1999-07-31 18.8 23.9 15.2 9.4 76.0- 4.3 1.0---- 0.0------------
1999-07-30 17.4 23.6 11.1 9.2 78.5- 2.7 1.7---- 0.0------------
1999-07-29 17.6 22.9 13.4 13.4 79.3- 6.0 2.7---- 0.0------------
1999-07-28 19.2 23.8 15.5 13.9 76.3- 4.7 1.3---- 0.0------------
1999-07-27 18.8 22.8 16.5 16.5 97.8- 8.0 1.7---- 0.0------------
1999-07-26 19.7 26.4 13.6 11.8 88.5- 6.7 2.0---- 29.0------------
1999-07-25 18.8 23.5 13.9 12.3 77.8- 3.3 1.0---- 0.0------------
1999-07-24 16.6 21.4 12.8 12.6 89.5- 7.3 1.0---- 0.0------------
1999-07-23 15.2 19.4 12.8 12.8 98.0- 8.0 1.3---- 15.6------------
1999-07-22 20.2 22.7 18.3 14.7 82.0- 7.0 1.0---- 7.2------------
1999-07-21 22.1 27.7 16.9 14.5 75.5- 5.0 1.3---- 0.0------------
1999-07-20 22.7 28.3 15.3 12.2 70.0- 1.0 1.0---- 0.0------------
1999-07-19 20.5 27.0 12.9 9.5 69.5- 2.0 1.0---- 0.0------------
1999-07-18 18.5 24.4 11.0 9.2 73.0- 1.3 0.3---- 0.0------------
1999-07-17 18.0 22.4 13.0 10.7 79.0- 3.3 1.7---- 0.0------------
1999-07-16 17.0 20.8 12.7 10.0 78.5- 5.0 3.3---- 0.0------------
1999-07-15 17.4 21.4 14.8 14.7 82.3- 5.3 3.3---- 0.0------------
1999-07-14 20.6 27.6 16.8 16.1 83.5- 5.3 3.0---- 11.4------------
1999-07-13 20.7 24.6 16.5 15.5 87.5- 5.0 0.3---- 15.4------------
1999-07-12 20.6 26.6 15.1 13.7 85.8- 6.0 2.3---- 1.4------------
1999-07-11 18.4 21.1 15.9 15.7 89.3- 7.3 2.7---- 4.4------------
1999-07-10 19.3 22.9 16.5 16.5 87.5- 8.0 4.3---- 0.0------------
1999-07-09 18.7 21.5 16.0 16.0 96.5- 8.0 2.7---- 0.3------------
1999-07-08 18.9 21.7 17.6 16.7 96.5- 8.0 2.0---- 10.7------------
1999-07-07 22.9 28.8 19.7 17.5 88.3- 7.0 2.3---- 23.9------------
1999-07-06 25.3 32.7 17.6 14.2 69.8- 1.0 0.3---- 0.0------------
1999-07-05 25.1 31.5 17.6 14.2 72.8- 0.0 1.7---- 0.0------------
1999-07-04 22.7 29.4 14.4 11.7 74.0- 0.0 1.0---- 0.0------------
1999-07-03 20.9 25.5 15.5 14.2 80.0- 2.7 1.3---- 0.0------------
1999-07-02 20.6 24.9 16.5 15.7 79.5- 4.3 1.0---- 1.3------------
1999-07-01 19.3 25.2 14.2 11.4 92.0- 5.7 1.7---- 4.6------------
1999-06-30 19.5 24.7 14.3 12.1 82.0- 4.7 2.0---- 0.0------------
1999-06-29 19.8 24.2 16.0 16.0 74.5- 3.0 1.7---- 0.0------------
1999-06-28 20.3 27.0 14.0 11.0 73.0- 4.0 2.0---- 0.0------------
1999-06-27 19.6 26.5 11.1 8.2 72.0- 1.0 2.0---- 0.0------------
1999-06-26 16.8 25.3 8.1 5.3 74.8- 2.3 1.7---- 0.0------------
1999-06-25 13.6 19.0 6.9 5.3 84.8- 1.3 2.0---- 0.0------------
1999-06-24 12.1 14.5 9.3 9.2 87.8- 7.7 1.3---- 0.0------------
1999-06-23 9.2 10.9 7.4 7.2 99.5- 8.0 3.0---- 4.4------------
1999-06-22 10.9 17.0 7.8 7.8100.0- 8.0 7.3---- 43.4------------
1999-06-21 19.0 23.4 16.0 16.0 86.0- 6.3 1.0---- 27.2------------
1999-06-20 17.8 21.4 14.5 13.7 90.0- 7.0 0.7---- 0.0------------
1999-06-19 15.4 17.6 13.2 12.7 94.5- 8.0 2.7---- 0.0------------
1999-06-18 17.2 20.4 15.5 12.2 96.8- 8.0 2.3---- 6.7------------
1999-06-17 18.6 22.4 15.9 15.9 95.5- 7.0 1.0---- 34.8------------
1999-06-16 17.0 18.8 15.0 15.0 95.8- 8.0 1.0---- 3.2------------
341.3 ms

 

Źródłem pochodzenia danych jest Instytut Meteorologii i Gospodarki Wodnej – Państwowy Instytut Badawczy. Dane Instytutu Meteorologii i Gospodarki Wodnej – Państwowego Instytutu Badawczego zostały przetworzone.

Dane źródłowe można odnaleźć na stronie https://dane.imgw.pl